Time;durP1;ratioP1;P1;durP2;ratioP2;P2;SDS_P1;SDS_P2;PMS_P1;PMS_P2;Temp;Humidity;BMP_temperature;BMP_pressure;BME280_temperature;BME280_humidity;BME280_pressure;Samples;Min_cycle;Max_cycle;Signal;HPM_P1;HPM_P2
2022/12/05 00:00:54;;;;;;;41.42;20.05;;;;;;;7.06;100.00;98042.59;4965269;28;20169;-59
2022/12/05 00:03:21;;;;;;;39.17;21.42;;;;;;;7.20;100.00;98040.50;4965148;28;20057;-62
2022/12/05 00:05:48;;;;;;;45.30;22.90;;;;;;;7.33;100.00;98056.03;4965198;28;20080;-58
2022/12/05 00:08:14;;;;;;;45.35;23.05;;;;;;;7.41;100.00;98055.22;4964954;28;20080;-60
2022/12/05 00:10:41;;;;;;;51.78;27.30;;;;;;;7.48;100.00;98068.53;4965571;28;20468;-57
2022/12/05 00:13:08;;;;;;;82.18;40.30;;;;;;;6.97;100.00;98000.47;4965241;28;20403;-57
2022/12/05 00:15:39;;;;;;;49.97;25.65;;;;;;;7.41;100.00;98063.50;4965297;28;20131;-62
2022/12/05 00:18:07;;;;;;;46.13;21.90;;;;;;;7.40;100.00;98056.38;4965405;28;20105;-56
2022/12/05 00:20:33;;;;;;;41.67;21.95;;;;;;;7.52;100.00;98075.03;4963820;28;20046;-62
2022/12/05 00:23:00;;;;;;;42.85;21.38;;;;;;;7.36;100.00;98040.81;4965227;28;20112;-62
2022/12/05 00:25:27;;;;;;;42.97;23.63;;;;;;;7.44;100.00;98056.53;4979723;28;20537;-62
2022/12/05 00:27:54;;;;;;;45.72;24.65;;;;;;;7.40;100.00;98077.59;4965107;28;20501;-59
2022/12/05 00:30:20;;;;;;;48.33;25.75;;;;;;;7.12;100.00;98005.50;4963385;28;20047;-57
2022/12/05 00:32:47;;;;;;;43.60;23.23;;;;;;;7.40;100.00;98061.06;4967200;28;20050;-59
2022/12/05 00:35:13;;;;;;;40.55;21.00;;;;;;;7.36;100.00;98060.13;4965028;28;20182;-57
2022/12/05 00:37:40;;;;;;;38.90;19.42;;;;;;;7.25;100.00;98054.13;4965025;28;20134;-60
2022/12/05 00:40:07;;;;;;;42.67;20.95;;;;;;;6.84;100.00;98033.66;4964846;28;20066;-57
2022/12/05 00:42:34;;;;;;;84.28;27.65;;;;;;;6.94;100.00;98086.50;4966413;28;20134;-56
2022/12/05 00:45:00;;;;;;;70.13;22.17;;;;;;;6.86;100.00;98029.44;4968492;28;20580;-62
2022/12/05 00:47:27;;;;;;;75.68;23.35;;;;;;;6.72;100.00;98056.31;4967287;28;20138;-61
2022/12/05 00:49:53;;;;;;;51.03;20.42;;;;;;;6.77;100.00;98047.91;4968704;28;20123;-58
2022/12/05 00:52:21;;;;;;;35.92;18.13;;;;;;;6.83;100.00;98054.88;4968367;28;20055;-58
2022/12/05 00:54:47;;;;;;;35.17;17.98;;;;;;;6.94;100.00;98069.97;4968871;28;20055;-62
2022/12/05 00:57:14;;;;;;;32.60;16.95;;;;;;;6.74;100.00;98021.03;4967922;28;20474;-62
2022/12/05 00:59:40;;;;;;;34.58;17.42;;;;;;;6.99;100.00;98056.03;4968744;28;20076;-61
2022/12/05 01:02:07;;;;;;;38.95;16.40;;;;;;;7.04;100.00;98053.13;4982892;28;20106;-57
2022/12/05 01:04:34;;;;;;;33.92;17.50;;;;;;;7.06;100.00;98050.88;4968646;28;20137;-63
2022/12/05 01:07:00;;;;;;;32.08;17.15;;;;;;;7.07;100.00;98049.72;4968077;28;20125;-62
2022/12/05 01:09:27;;;;;;;34.60;16.90;;;;;;;6.99;100.00;98034.00;4968245;28;20490;-62
2022/12/05 01:11:53;;;;;;;39.35;18.48;;;;;;;7.10;100.00;98040.00;4967756;28;20167;-57
2022/12/05 01:14:22;;;;;;;33.20;16.38;;;;;;;7.13;100.00;98039.34;4966736;28;20477;-62
2022/12/05 01:16:51;;;;;;;31.83;17.70;;;;;;;7.18;100.00;98036.44;4966599;28;20460;-57
2022/12/05 01:19:22;;;;;;;35.85;17.08;;;;;;;7.17;100.00;98062.38;4967888;28;20157;-62
2022/12/05 01:21:48;;;;;;;41.55;19.00;;;;;;;7.14;100.00;98047.31;4967794;28;20153;-62
2022/12/05 01:24:16;;;;;;;38.63;18.42;;;;;;;6.95;100.00;98027.53;4966155;28;20146;-62
2022/12/05 01:26:43;;;;;;;36.45;17.73;;;;;;;7.02;100.00;98044.38;4967553;28;20063;-63
2022/12/05 01:29:15;;;;;;;41.63;19.33;;;;;;;7.03;100.00;98040.50;4967210;28;20051;-62
2022/12/05 01:31:42;;;;;;;45.58;20.00;;;;;;;7.07;100.00;98030.44;4965968;28;20086;-63
2022/12/05 01:34:12;;;;;;;42.22;19.08;;;;;;;7.02;100.00;98019.59;4962663;28;20158;-62
2022/12/05 01:36:40;;;;;;;44.45;21.60;;;;;;;7.04;100.00;98042.13;4946776;28;20114;-59
2022/12/05 01:39:08;;;;;;;38.08;18.42;;;;;;;7.15;100.00;98037.91;4948827;28;20059;-61
2022/12/05 01:41:39;;;;;;;32.55;16.80;;;;;;;6.62;100.00;97952.03;4948478;28;20092;-63
2022/12/05 01:44:12;;;;;;;40.80;18.13;;;;;;;7.21;100.00;98024.75;4948865;29;20150;-57
2022/12/05 01:46:49;;;;;;;38.28;18.02;;;;;;;7.23;100.00;98023.31;4948179;28;20083;-56
2022/12/05 01:49:20;;;;;;;37.28;18.83;;;;;;;7.26;100.00;98016.34;4948674;28;20063;-57
2022/12/05 01:51:51;;;;;;;40.15;18.70;;;;;;;7.22;100.00;98016.16;4963034;28;20126;-62
2022/12/05 01:54:21;;;;;;;44.75;19.90;;;;;;;7.26;100.00;98011.66;4947848;28;20122;-57
2022/12/05 01:56:54;;;;;;;41.15;20.73;;;;;;;7.28;100.00;98014.06;4947419;28;20059;-59
2022/12/05 01:59:23;;;;;;;36.70;19.00;;;;;;;7.23;100.00;98012.31;4948293;28;20134;-60
2022/12/05 02:01:50;;;;;;;33.40;16.27;;;;;;;7.10;100.00;97973.88;4946877;29;20130;-62
2022/12/05 02:04:16;;;;;;;33.28;18.60;;;;;;;7.29;100.00;98013.75;4946745;29;20070;-63
2022/12/05 02:06:43;;;;;;;45.28;20.95;;;;;;;7.37;100.00;98010.19;4947629;28;20059;-62
2022/12/05 02:09:10;;;;;;;37.00;19.10;;;;;;;7.27;100.00;97995.94;4947852;28;20094;-57
2022/12/05 02:11:51;;;;;;;40.20;19.85;;;;;;;6.98;100.00;97955.28;4947672;28;20051;-62
2022/12/05 02:14:27;;;;;;;44.90;24.63;;;;;;;6.95;100.00;97950.41;4948052;28;20784;-58
2022/12/05 02:17:00;;;;;;;35.55;20.23;;;;;;;7.30;100.00;98012.59;4947788;28;20142;-57
2022/12/05 02:19:41;;;;;;;33.72;16.65;;;;;;;7.34;100.00;98008.06;4947933;28;20055;-57
2022/12/05 02:22:30;;;;;;;34.38;16.77;;;;;;;7.37;100.00;98007.41;4947780;28;20117;-57
2022/12/05 02:25:25;;;;;;;32.38;16.58;;;;;;;7.32;100.00;98004.81;4947865;28;20134;-59
2022/12/05 02:28:10;;;;;;;35.45;18.95;;;;;;;7.38;100.00;98008.25;4947004;28;20134;-58
2022/12/05 02:30:53;;;;;;;43.67;22.27;;;;;;;7.36;100.00;98011.31;4946793;28;20149;-62
2022/12/05 02:33:27;;;;;;;39.25;20.00;;;;;;;7.32;100.00;98018.59;4956505;28;20148;-62
2022/12/05 02:36:01;;;;;;;;;;;;;;;7.20;100.00;98018.47;4966559;28;20524;-57
2022/12/05 02:38:38;;;;;;;;;;;;;;;7.23;100.00;98006.78;4981678;28;19926;-57
2022/12/05 02:41:05;;;;;;;42.75;22.77;;;;;;;7.22;100.00;98013.41;4966737;28;19926;-62
2022/12/05 02:43:58;;;;;;;40.53;21.90;;;;;;;7.24;100.00;98008.41;4966475;28;20055;-57
2022/12/05 02:46:28;;;;;;;35.83;18.77;;;;;;;6.87;100.00;97969.69;4965338;28;20137;-62
2022/12/05 02:49:02;;;;;;;39.85;20.95;;;;;;;6.86;100.00;97918.50;4966305;28;20137;-57
2022/12/05 02:51:33;;;;;;;41.28;22.13;;;;;;;7.37;100.00;98001.91;4776194;29;5001657;-57
2022/12/05 02:54:05;;;;;;;42.00;21.08;;;;;;;6.99;100.00;97940.34;4946955;28;20138;-62
2022/12/05 02:56:34;;;;;;;39.47;19.85;;;;;;;7.16;100.00;97965.13;4946719;28;20212;-62
2022/12/05 02:59:01;;;;;;;37.60;20.13;;;;;;;7.29;100.00;97988.94;4947145;28;20066;-57
2022/12/05 03:01:31;;;;;;;49.25;22.00;;;;;;;7.36;100.00;98005.81;4947025;28;20162;-57
2022/12/05 03:04:00;;;;;;;42.67;22.30;;;;;;;7.42;100.00;98004.50;4946771;29;20056;-61
2022/12/05 03:06:50;;;;;;;39.95;20.48;;;;;;;7.34;100.00;98013.59;4946363;28;20392;-57
2022/12/05 03:09:25;;;;;;;45.42;20.90;;;;;;;7.28;100.00;98014.88;4946885;28;20119;-56
2022/12/05 03:11:59;;;;;;;41.25;21.17;;;;;;;7.25;100.00;98010.03;4946513;28;20058;-61
2022/12/05 03:14:32;;;;;;;41.97;21.15;;;;;;;7.35;100.00;98015.19;4946552;28;20063;-57
2022/12/05 03:17:04;;;;;;;38.45;21.02;;;;;;;7.44;100.00;98007.75;4977191;28;20164;-61
2022/12/05 03:19:46;;;;;;;40.27;20.20;;;;;;;7.38;100.00;98014.53;4946347;28;20130;-56
2022/12/05 03:22:22;;;;;;;40.75;19.70;;;;;;;7.36;100.00;98016.84;4946148;28;20349;-58
2022/12/05 03:24:49;;;;;;;38.80;20.33;;;;;;;7.32;100.00;98010.34;4946623;28;20143;-59
2022/12/05 03:27:45;;;;;;;40.60;19.73;;;;;;;7.36;100.00;98016.84;4945977;28;20648;-61
2022/12/05 03:30:16;;;;;;;39.30;22.05;;;;;;;7.29;100.00;98013.75;4945781;28;20125;-56
2022/12/05 03:32:54;;;;;;;44.58;21.35;;;;;;;7.31;100.00;98016.19;4946165;28;20130;-56
2022/12/05 03:35:23;;;;;;;44.67;21.85;;;;;;;7.40;100.00;98017.78;4944993;29;20122;-56
2022/12/05 03:38:07;;;;;;;43.78;22.95;;;;;;;7.36;100.00;98016.84;4945901;28;20051;-56
2022/12/05 03:40:42;;;;;;;42.15;23.67;;;;;;;7.40;100.00;98023.31;4946308;28;20106;-56
2022/12/05 03:43:33;;;;;;;48.20;24.10;;;;;;;7.56;100.00;98029.94;4946370;28;20486;-61
2022/12/05 03:46:05;;;;;;;44.88;25.25;;;;;;;7.09;100.00;97956.56;4945992;29;20142;-57
2022/12/05 03:48:35;;;;;;;46.72;26.48;;;;;;;7.45;100.00;98031.41;4946318;28;20226;-62
2022/12/05 03:51:04;;;;;;;70.50;33.67;;;;;;;7.40;100.00;98022.47;4946229;28;20138;-62
2022/12/05 03:53:40;;;;;;;58.42;30.98;;;;;;;7.40;100.00;98023.31;4946103;28;20117;-56
2022/12/05 03:56:11;;;;;;;52.63;26.77;;;;;;;7.43;100.00;98028.16;4946076;28;20142;-62
2022/12/05 03:58:47;;;;;;;48.22;24.38;;;;;;;7.16;100.00;97998.19;4946329;28;20138;-59
2022/12/05 04:01:18;;;;;;;42.40;19.92;;;;;;;7.52;100.00;98030.91;4946113;28;20063;-59
2022/12/05 04:03:52;;;;;;;44.53;22.90;;;;;;;7.26;100.00;97997.88;4946471;29;20051;-61
2022/12/05 04:06:38;;;;;;;41.35;21.35;;;;;;;7.45;100.00;98047.94;4946456;28;20059;-57
2022/12/05 04:09:17;;;;;;;46.88;24.80;;;;;;;7.40;100.00;98028.81;4946373;28;20137;-62
2022/12/05 04:11:53;;;;;;;50.63;26.60;;;;;;;7.42;100.00;98023.78;4946068;28;20296;-59
2022/12/05 04:14:29;;;;;;;52.70;28.30;;;;;;;7.36;100.00;98022.34;4945929;28;20106;-62
2022/12/05 04:17:02;;;;;;;52.78;25.83;;;;;;;6.98;100.00;97955.28;4946438;28;20588;-63
2022/12/05 04:22:26;;;;;;;53.83;25.60;;;;;;;7.44;100.00;98018.78;4949490;28;20062;-63
2022/12/05 04:27:47;;;;;;;40.50;19.17;;;;;;;7.46;100.00;98022.00;4949249;28;20098;-58
2022/12/05 04:30:19;;;;;;;31.85;17.88;;;;;;;7.43;100.00;98017.13;4949571;28;20142;-57
2022/12/05 04:32:59;;;;;;;34.55;17.77;;;;;;;7.41;100.00;98019.41;4949092;28;20063;-62
2022/12/05 04:35:52;;;;;;;41.05;20.80;;;;;;;7.33;100.00;98022.97;4948023;29;20055;-57
2022/12/05 04:38:41;;;;;;;43.38;22.83;;;;;;;7.29;100.00;98021.19;4949344;28;20055;-63
2022/12/05 04:41:15;;;;;;;42.80;21.88;;;;;;;7.28;100.00;98025.91;4949442;28;20266;-63
2022/12/05 04:43:45;;;;;;;41.13;22.00;;;;;;;7.28;100.00;98025.09;4949296;28;20113;-57
2022/12/05 04:46:15;;;;;;;41.95;22.08;;;;;;;7.30;100.00;98023.63;4949402;29;20091;-58
2022/12/05 04:48:47;;;;;;;44.03;24.58;;;;;;;6.98;100.00;97984.75;4949251;28;20047;-63
2022/12/05 04:51:19;;;;;;;74.90;37.08;;;;;;;7.27;100.00;98013.25;4949088;28;20082;-63
2022/12/05 04:53:48;;;;;;;52.88;28.17;;;;;;;7.37;100.00;98034.97;4947373;29;20118;-63
2022/12/05 04:56:18;;;;;;;46.33;24.83;;;;;;;7.27;100.00;98017.97;4947317;29;20581;-62
2022/12/05 04:58:44;;;;;;;43.05;21.70;;;;;;;7.00;100.00;97966.75;4948930;28;20082;-57
2022/12/05 05:01:21;;;;;;;49.20;24.17;;;;;;;7.35;100.00;98031.72;4948568;28;20051;-62
2022/12/05 05:04:25;;;;;;;62.78;33.13;;;;;;;7.43;100.00;98033.66;4946272;28;20058;-63
2022/12/05 05:06:52;;;;;;;76.43;38.80;;;;;;;7.44;100.00;98038.06;4976127;28;20535;-57
2022/12/05 05:09:19;;;;;;;56.17;26.95;;;;;;;7.42;100.00;98034.81;4968202;28;20051;-57
2022/12/05 05:11:46;;;;;;;60.35;29.85;;;;;;;7.14;100.00;97997.72;4967918;28;20054;-57
2022/12/05 05:14:12;;;;;;;54.70;27.05;;;;;;;7.39;100.00;98037.41;4966205;28;20529;-57
2022/12/05 05:16:41;;;;;;;58.42;29.17;;;;;;;7.34;100.00;98035.63;4966372;28;20608;-62
2022/12/05 05:19:09;;;;;;;50.72;24.92;;;;;;;6.99;100.00;97972.59;4966783;28;20050;-64
2022/12/05 05:21:39;;;;;;;45.10;23.67;;;;;;;7.37;100.00;98034.97;4967981;28;20109;-57
2022/12/05 05:24:07;;;;;;;39.20;19.42;;;;;;;7.28;100.00;98031.44;4966604;28;20096;-60
2022/12/05 05:26:36;;;;;;;40.28;19.90;;;;;;;6.95;100.00;97993.66;4967856;28;20047;-58
2022/12/05 05:29:03;;;;;;;35.95;19.52;;;;;;;6.79;100.00;97968.56;4966618;28;20565;-64
2022/12/05 05:31:30;;;;;;;33.75;17.75;;;;;;;7.14;100.00;98041.81;4967046;28;20122;-59
2022/12/05 05:33:57;;;;;;;36.90;19.52;;;;;;;7.21;100.00;98042.13;4965937;28;20090;-63
2022/12/05 05:36:26;;;;;;;44.78;24.23;;;;;;;7.18;100.00;98041.94;4967312;28;20138;-57
2022/12/05 05:38:57;;;;;;;52.03;25.45;;;;;;;7.24;100.00;98041.47;4967485;28;20059;-57
2022/12/05 05:41:24;;;;;;;61.15;30.33;;;;;;;7.27;100.00;98042.78;4967478;28;20062;-58
2022/12/05 05:43:51;;;;;;;54.08;26.88;;;;;;;7.27;100.00;98040.81;4966855;28;20059;-58
2022/12/05 05:46:21;;;;;;;59.75;29.02;;;;;;;7.30;100.00;98039.38;4967291;28;20054;-57
2022/12/05 05:48:48;;;;;;;55.13;27.52;;;;;;;7.34;100.00;98041.16;4965793;28;20759;-57
2022/12/05 05:51:16;;;;;;;53.75;26.75;;;;;;;7.38;100.00;98044.84;4966765;28;20145;-63
2022/12/05 05:53:43;;;;;;;38.53;20.70;;;;;;;7.34;100.00;98041.16;4967077;28;20069;-57
2022/12/05 05:56:13;;;;;;;34.97;19.98;;;;;;;7.38;100.00;98044.06;4966651;28;20090;-57
2022/12/05 05:58:47;;;;;;;37.92;19.13;;;;;;;7.02;100.00;98043.56;4967296;28;20074;-62
2022/12/05 06:01:19;;;;;;;35.00;18.48;;;;;;;6.96;100.00;98023.63;4966585;28;20146;-63
2022/12/05 06:03:47;;;;;;;36.30;18.92;;;;;;;6.83;100.00;97991.53;4967260;28;20112;-59
2022/12/05 06:06:15;;;;;;;32.95;17.38;;;;;;;7.16;100.00;98035.97;4965499;28;20047;-63
2022/12/05 06:08:43;;;;;;;39.33;20.17;;;;;;;7.15;100.00;98040.66;4967419;28;20133;-57
2022/12/05 06:11:13;;;;;;;39.00;20.55;;;;;;;7.22;100.00;98035.47;4965567;28;20133;-63
2022/12/05 06:13:43;;;;;;;44.58;24.13;;;;;;;7.26;100.00;98038.38;4965673;28;20077;-59
2022/12/05 06:16:12;;;;;;;61.15;32.55;;;;;;;7.33;100.00;98039.50;4966938;28;20078;-63
2022/12/05 06:18:38;;;;;;;72.05;37.60;;;;;;;7.30;100.00;98039.38;4965365;28;20043;-61
2022/12/05 06:21:09;;;;;;;71.88;37.08;;;;;;;7.32;100.00;98043.41;4966673;28;20580;-62
2022/12/05 06:23:41;;;;;;;72.82;37.80;;;;;;;7.43;100.00;98043.88;4965588;28;20105;-58
2022/12/05 06:26:14;;;;;;;81.32;43.45;;;;;;;7.48;100.00;98055.56;4966569;28;20107;-62
2022/12/05 06:28:41;;;;;;;97.80;43.73;;;;;;;7.49;100.00;98054.41;4966855;28;20082;-56
2022/12/05 06:31:09;;;;;;;96.82;47.38;;;;;;;7.51;100.00;98052.16;4965126;28;20518;-63
2022/12/05 06:33:37;;;;;;;97.40;49.95;;;;;;;7.41;100.00;98040.66;4966423;28;20567;-57
2022/12/05 06:36:10;;;;;;;51.63;27.38;;;;;;;7.50;100.00;98050.53;4966446;28;20109;-57
2022/12/05 06:38:37;;;;;;;62.72;32.85;;;;;;;6.88;100.00;97943.75;4966668;28;20137;-58
2022/12/05 06:41:12;;;;;;;51.75;28.83;;;;;;;7.55;100.00;98055.06;4965892;28;20153;-58
2022/12/05 06:43:39;;;;;;;46.03;26.25;;;;;;;7.68;100.00;98068.66;4965964;28;20506;-62
2022/12/05 06:46:07;;;;;;;45.28;24.95;;;;;;;7.03;99.79;98001.94;4964291;28;20133;-65
2022/12/05 06:48:34;;;;;;;49.10;26.50;;;;;;;7.82;99.80;98067.69;4966490;28;20090;-59
2022/12/05 06:51:02;;;;;;;47.65;26.45;;;;;;;7.09;98.65;97934.53;4961361;28;20109;-61
2022/12/05 06:53:29;;;;;;;51.75;28.58;;;;;;;7.95;97.81;98066.69;4963740;28;20330;-66
2022/12/05 06:56:00;;;;;;;49.42;28.92;;;;;;;7.85;97.51;98031.97;4968650;28;20530;-69
2022/12/05 06:58:27;;;;;;;30.95;18.48;;;;;;;7.37;95.26;97957.81;4964800;28;20101;-60
2022/12/05 07:03:40;;;;;;;36.75;22.50;;;;;;;7.76;94.36;98005.56;4964444;28;20066;-57
2022/12/05 07:06:07;;;;;;;41.33;23.52;;;;;;;8.10;94.43;98082.69;4963204;28;20302;-66
2022/12/05 07:08:34;;;;;;;35.17;21.40;;;;;;;8.18;93.03;98082.69;4965456;28;20556;-57
2022/12/05 07:11:02;;;;;;;38.15;21.95;;;;;;;8.23;91.97;98076.22;4963877;28;20198;-57
2022/12/05 07:13:29;;;;;;;43.17;22.92;;;;;;;8.27;92.35;98079.91;4968814;28;20058;-57
2022/12/05 07:15:57;;;;;;;86.50;36.45;;;;;;;8.22;92.70;98083.63;4962720;28;20066;-57
2022/12/05 07:18:25;;;;;;;88.95;38.53;;;;;;;8.30;92.05;98079.28;4964878;28;20046;-63
2022/12/05 07:21:00;;;;;;;70.53;35.13;;;;;;;7.95;90.77;98028.84;4965663;28;20130;-56
2022/12/05 07:23:38;;;;;;;54.40;35.22;;;;;;;8.47;91.60;98090.25;4965095;28;20113;-57
2022/12/05 07:26:07;;;;;;;47.45;27.25;;;;;;;5.33;90.52;97617.56;4960068;28;20113;-69
2022/12/05 07:28:34;;;;;;;43.28;25.20;;;;;;;7.83;90.11;98025.97;4945851;28;20070;-68
2022/12/05 07:31:05;;;;;;;38.58;22.50;;;;;;;8.37;89.98;98096.94;4958009;28;20097;-57
2022/12/05 07:33:32;;;;;;;47.22;25.05;;;;;;;8.41;91.74;98097.09;4965143;28;20907;-68
2022/12/05 07:36:00;;;;;;;38.65;22.48;;;;;;;8.41;92.64;98097.09;4962182;28;20494;-60
2022/12/05 07:38:27;;;;;;;42.88;24.95;;;;;;;8.67;91.47;98095.03;4957065;28;20134;-57
2022/12/05 07:40:54;;;;;;;46.53;27.85;;;;;;;8.64;90.25;98091.00;4947350;28;20477;-60
2022/12/05 07:43:21;;;;;;;45.97;29.65;;;;;;;8.70;89.53;98095.19;4963691;28;20157;-56
2022/12/05 07:45:48;;;;;;;39.35;24.65;;;;;;;8.75;89.40;98096.94;4945630;28;20094;-59
2022/12/05 07:48:15;;;;;;;54.47;29.30;;;;;;;8.66;88.30;98072.13;4958945;28;20065;-61
2022/12/05 07:50:44;;;;;;;51.20;28.63;;;;;;;8.89;87.80;98092.81;4947645;28;20442;-60
2022/12/05 07:53:11;;;;;;;37.50;20.65;;;;;;;8.23;86.39;98007.22;4977744;28;20078;-59
2022/12/05 07:55:38;;;;;;;31.45;17.38;;;;;;;8.74;85.55;98070.47;4964947;28;20506;-57
2022/12/05 07:58:05;;;;;;;29.27;18.08;;;;;;;8.59;86.04;98051.69;4975046;28;20134;-60
2022/12/05 08:00:32;;;;;;;26.85;16.65;;;;;;;8.95;86.53;98079.59;4956974;28;20137;-67
2022/12/05 08:03:01;;;;;;;23.90;16.75;;;;;;;8.49;86.37;98021.69;4955559;28;20063;-55
2022/12/05 08:05:28;;;;;;;26.33;16.65;;;;;;;8.78;86.38;98071.41;4966192;28;20078;-60
2022/12/05 08:07:55;;;;;;;32.00;19.10;;;;;;;9.00;86.52;98093.22;4977467;28;20050;-61
2022/12/05 08:10:22;;;;;;;42.88;22.55;;;;;;;8.80;86.15;98071.91;4981808;28;20089;-55
2022/12/05 08:12:48;;;;;;;41.10;22.35;;;;;;;8.93;86.41;98087.44;4962464;28;20042;-59
2022/12/05 08:15:15;;;;;;;33.72;21.73;;;;;;;9.12;85.48;98068.41;4947455;28;20106;-67
2022/12/05 08:17:42;;;;;;;32.63;19.25;;;;;;;8.98;85.16;98051.28;4945983;28;20057;-61
2022/12/05 08:20:09;;;;;;;29.33;17.83;;;;;;;9.12;85.67;98062.88;4951973;28;20433;-57
2022/12/05 08:22:36;;;;;;;39.50;22.85;;;;;;;9.44;84.09;98081.50;4967788;28;20050;-67
2022/12/05 08:25:02;;;;;;;32.22;19.55;;;;;;;9.27;83.09;98020.84;4971779;28;20121;-57
2022/12/05 08:27:29;;;;;;;43.72;21.67;;;;;;;9.29;81.46;98006.66;4963009;28;20175;-64
2022/12/05 08:29:56;;;;;;;35.90;20.75;;;;;;;9.73;82.52;98078.69;4963466;28;20077;-71
2022/12/05 08:32:23;;;;;;;29.48;18.77;;;;;;;9.88;81.21;98075.25;4957557;28;20128;-63
2022/12/05 08:34:50;;;;;;;33.22;19.50;;;;;;;10.09;81.37;98073.28;4942897;29;20058;-56
2022/12/05 08:37:16;;;;;;;28.63;18.23;;;;;;;10.29;79.70;98069.63;4945926;28;20083;-57
2022/12/05 08:39:43;;;;;;;28.52;16.55;;;;;;;10.34;81.51;98066.66;4945087;28;20118;-60
2022/12/05 08:42:09;;;;;;;35.65;21.63;;;;;;;10.32;79.28;98012.78;4946517;28;20381;-60
2022/12/05 08:44:36;;;;;;;37.40;21.05;;;;;;;10.40;78.64;98009.88;4944582;28;20047;-61
2022/12/05 08:47:03;;;;;;;46.05;24.33;;;;;;;10.83;78.99;98061.16;4942304;28;20554;-61
2022/12/05 08:49:29;;;;;;;36.05;22.20;;;;;;;10.73;79.59;98068.75;4939028;28;20133;-66
2022/12/05 08:51:56;;;;;;;33.42;20.58;;;;;;;10.87;78.82;98059.28;4944524;28;20071;-57
2022/12/05 08:54:23;;;;;;;25.67;16.95;;;;;;;10.60;77.33;97984.03;4944775;29;20589;-61
2022/12/05 08:56:51;;;;;;;26.60;16.08;;;;;;;10.99;76.88;98062.03;4959161;28;20051;-68
2022/12/05 08:59:18;;;;;;;22.48;15.07;;;;;;;10.89;74.27;98043.13;4944570;28;20054;-59
2022/12/05 09:01:45;;;;;;;32.60;16.55;;;;;;;10.87;76.47;98059.28;4944530;28;20055;-58
2022/12/05 09:04:12;;;;;;;33.90;19.45;;;;;;;10.48;76.59;97958.28;4959341;28;20510;-57
2022/12/05 09:06:39;;;;;;;22.95;16.45;;;;;;;10.26;75.03;97917.22;4932459;29;20122;-59
2022/12/05 09:09:10;;;;;;;22.10;15.15;;;;;;;10.83;74.44;98011.25;4945588;28;20157;-69
2022/12/05 09:11:45;;;;;;;31.95;18.45;;;;;;;10.90;75.30;98003.16;4948116;28;20506;-57
2022/12/05 09:14:12;;;;;;;35.15;20.33;;;;;;;11.17;75.86;98032.91;4947478;29;20055;-56
2022/12/05 09:16:39;;;;;;;23.52;15.40;;;;;;;11.21;75.27;98039.34;4928827;29;20059;-57
2022/12/05 09:19:15;;;;;;;37.33;20.30;;;;;;;11.27;74.83;98033.22;4928540;29;20134;-59
2022/12/05 09:21:42;;;;;;;32.47;18.00;;;;;;;11.05;75.50;98024.63;4929027;29;20482;-61
2022/12/05 09:24:11;;;;;;;30.88;18.20;;;;;;;11.28;74.93;98029.31;4945291;29;20544;-63
2022/12/05 09:26:38;;;;;;;39.03;21.48;;;;;;;10.73;74.82;97917.50;4946629;28;20051;-61
2022/12/05 09:29:05;;;;;;;29.17;18.38;;;;;;;11.45;73.99;98000.47;4947994;28;20047;-63
2022/12/05 09:31:41;;;;;;;36.47;19.60;;;;;;;11.68;72.61;98009.91;4947206;28;20536;-60
2022/12/05 09:34:09;;;;;;;66.38;27.33;;;;;;;11.64;72.27;98014.53;4946353;29;20061;-61
2022/12/05 09:36:36;;;;;;;24.83;16.17;;;;;;;11.50;72.34;97975.25;4946765;29;20055;-59
2022/12/05 09:39:05;;;;;;;26.75;15.82;;;;;;;11.92;72.44;98012.53;4947559;28;20059;-61
2022/12/05 09:44:41;;;;;;;20.80;14.77;;;;;;;12.02;71.67;97950.91;4966358;28;20043;-57
2022/12/05 09:47:26;;;;;;;17.98;12.63;;;;;;;12.36;69.95;97997.41;4947434;28;20117;-59
2022/12/05 09:50:19;;;;;;;16.05;11.15;;;;;;;12.26;67.40;97991.59;4953653;28;20841;-63
2022/12/05 09:53:01;;;;;;;14.85;10.73;;;;;;;12.24;67.76;97986.41;4943877;28;20464;-61
2022/12/05 09:55:34;;;;;;;22.67;15.25;;;;;;;12.26;70.14;97980.50;4947762;28;20051;-59
2022/12/05 09:58:02;;;;;;;19.55;12.20;;;;;;;12.26;69.39;97986.88;4931966;29;20134;-59
2022/12/05 10:00:31;;;;;;;14.82;9.82;;;;;;;12.31;67.91;97985.78;4944753;28;20111;-67
2022/12/05 10:03:18;;;;;;;18.88;12.98;;;;;;;12.43;68.99;97980.94;4931535;29;20170;-60
2022/12/05 10:05:53;;;;;;;18.48;12.40;;;;;;;12.47;67.43;98015.16;4944191;28;20051;-57
2022/12/05 10:08:32;;;;;;;22.02;14.73;;;;;;;12.50;67.72;97958.91;4930489;29;21921;-57
2022/12/05 10:11:09;;;;;;;19.70;11.90;;;;;;;12.53;68.06;97980.41;4948307;28;20168;-59
2022/12/05 10:13:38;;;;;;;18.55;13.02;;;;;;;12.54;68.78;97973.66;4947262;28;20051;-58
2022/12/05 10:16:15;;;;;;;12.35;9.15;;;;;;;12.44;66.32;97979.75;4946820;28;20142;-60
2022/12/05 10:18:58;;;;;;;12.52;9.70;;;;;;;12.53;67.09;97972.06;4959344;28;20050;-57
2022/12/05 10:21:46;;;;;;;15.30;10.35;;;;;;;12.27;65.78;97941.25;4952774;28;20047;-57
2022/12/05 10:24:30;;;;;;;11.20;7.70;;;;;;;12.46;65.37;97974.66;4946823;28;20056;-57
2022/12/05 10:27:03;;;;;;;15.70;9.77;;;;;;;12.52;65.96;97967.66;4946859;28;20532;-57
2022/12/05 10:29:41;;;;;;;8.38;6.22;;;;;;;12.39;65.45;97974.50;4928601;28;20055;-58
2022/12/05 10:32:17;;;;;;;15.38;9.43;;;;;;;12.45;65.10;97956.38;4927427;29;20130;-57
2022/12/05 10:34:44;;;;;;;21.15;14.25;;;;;;;12.74;66.03;97952.31;4927651;29;20089;-58
2022/12/05 10:37:17;;;;;;;31.05;20.05;;;;;;;10.13;65.12;97522.53;4927418;29;20610;-57
2022/12/05 10:39:45;;;;;;;19.50;11.07;;;;;;;12.89;65.69;97951.44;4927707;29;20096;-57
2022/12/05 10:42:38;;;;;;;24.60;14.50;;;;;;;12.94;63.18;97962.28;4950807;28;20474;-57
2022/12/05 10:45:12;;;;;;;14.18;8.02;;;;;;;12.57;64.76;97966.56;4965231;28;20136;-55
2022/12/05 10:47:39;;;;;;;12.23;7.57;;;;;;;11.57;64.84;97823.63;4944366;29;20055;-59
2022/12/05 10:50:23;;;;;;;13.13;7.68;;;;;;;11.74;64.55;97862.19;4945161;28;20130;-57
2022/12/05 10:52:52;;;;;;;11.20;7.35;;;;;;;12.02;64.98;97900.94;4945802;29;20051;-60
2022/12/05 10:55:19;;;;;;;9.75;6.50;;;;;;;11.23;65.67;97793.00;4944824;29;20114;-60
2022/12/05 10:57:51;;;;;;;15.05;9.25;;;;;;;11.95;67.90;97947.94;4945763;29;20106;-61
2022/12/05 11:00:22;;;;;;;20.45;12.00;;;;;;;12.11;67.79;97948.75;4946450;29;20078;-58
2022/12/05 11:02:50;;;;;;;15.93;7.55;;;;;;;12.23;67.40;97943.13;4945098;28;20047;-61
2022/12/05 11:05:27;;;;;;;13.27;7.47;;;;;;;12.05;66.76;97931.59;4942420;28;20056;-59
2022/12/05 11:07:55;;;;;;;11.82;8.52;;;;;;;11.98;67.75;97881.41;4949229;28;20577;-60
2022/12/05 11:10:24;;;;;;;56.38;34.10;;;;;;;12.54;66.04;97925.59;4942903;29;20445;-55
2022/12/05 11:12:55;;;;;;;13.80;10.52;;;;;;;12.58;63.99;97921.78;4956555;28;20081;-59
2022/12/05 11:15:24;;;;;;;11.57;7.60;;;;;;;12.56;63.50;97918.53;4944951;28;20158;-61
2022/12/05 11:17:54;;;;;;;7.68;5.65;;;;;;;12.64;63.83;97927.84;4945275;28;20130;-66
2022/12/05 11:20:20;;;;;;;7.85;6.22;;;;;;;12.66;63.14;97923.50;4944207;29;20467;-57
2022/12/05 11:22:50;;;;;;;9.05;6.75;;;;;;;12.59;62.41;97922.56;4945626;28;20051;-59
2022/12/05 11:25:35;;;;;;;10.18;7.25;;;;;;;12.49;63.40;97915.56;4945322;28;20138;-61
2022/12/05 11:28:17;;;;;;;11.35;8.48;;;;;;;12.42;64.39;97918.22;4921947;28;20082;-59
2022/12/05 11:31:11;;;;;;;11.15;8.55;;;;;;;12.40;64.94;97914.97;4956568;28;20085;-61
2022/12/05 11:33:38;;;;;;;12.13;8.68;;;;;;;12.15;64.58;97900.47;4926928;29;20062;-64
2022/12/05 11:36:16;;;;;;;10.20;7.60;;;;;;;11.51;64.66;97815.91;4926437;29;20146;-59
2022/12/05 11:38:43;;;;;;;11.80;8.10;;;;;;;12.06;65.65;97921.28;4915774;28;20115;-63
2022/12/05 11:41:39;;;;;;;15.30;9.20;;;;;;;11.97;66.46;97917.88;4934416;28;20074;-59
2022/12/05 11:44:12;;;;;;;33.47;17.52;;;;;;;11.92;66.64;97909.78;4946033;29;20154;-57
2022/12/05 11:46:48;;;;;;;14.53;8.47;;;;;;;11.85;66.81;97904.06;4946825;28;20110;-58
2022/12/05 11:49:44;;;;;;;18.83;9.25;;;;;;;11.87;67.87;97901.75;4935714;28;20608;-56